createdAt,value
2019-03-21T00:00:16.241Z,57.54
2019-03-21T00:14:15.718Z,57.74
2019-03-21T00:17:25.450Z,57.74
2019-03-21T00:20:00.022Z,57.74
2019-03-21T00:22:31.346Z,100.00
2019-03-21T00:25:07.286Z,57.74
2019-03-21T00:27:41.479Z,100.00
2019-03-21T00:30:17.833Z,57.74
2019-03-21T00:32:50.204Z,57.74
2019-03-21T00:35:20.969Z,57.74
2019-03-21T00:37:51.722Z,58.46
2019-03-21T00:40:26.202Z,58.54
2019-03-21T00:42:59.270Z,58.66
2019-03-21T00:45:30.343Z,58.66
2019-03-21T00:48:02.602Z,58.41
2019-03-21T00:50:33.370Z,59.02
2019-03-21T00:53:04.130Z,59.22
2019-03-21T00:55:40.616Z,58.59
2019-03-21T00:58:33.218Z,58.35
2019-03-21T01:01:06.130Z,58.35
2019-03-21T01:03:37.090Z,58.49
2019-03-21T01:06:07.867Z,58.92
2019-03-21T01:08:38.621Z,59.14
2019-03-21T01:11:13.797Z,59.38
2019-03-21T01:13:45.061Z,59.38
2019-03-21T01:16:15.858Z,59.39
2019-03-21T01:18:48.339Z,100.00
2019-03-21T01:21:19.141Z,59.39
2019-03-21T01:23:50.115Z,59.39
2019-03-21T01:26:21.473Z,59.39
2019-03-21T01:28:52.305Z,59.39
2019-03-21T01:31:23.093Z,59.39
2019-03-21T01:33:53.840Z,59.69
2019-03-21T01:36:24.789Z,59.78
2019-03-21T01:38:55.546Z,59.78
2019-03-21T01:41:28.361Z,59.87
2019-03-21T01:43:59.123Z,59.87
2019-03-21T01:46:30.282Z,59.14
2019-03-21T01:49:03.813Z,59.14
2019-03-21T01:51:34.671Z,59.14
2019-03-21T01:54:05.488Z,59.14
2019-03-21T01:56:36.562Z,59.19
2019-03-21T01:59:07.317Z,59.19
2019-03-21T02:01:40.429Z,100.00
2019-03-21T02:04:11.186Z,59.58
2019-03-21T02:06:45.987Z,60.21
2019-03-21T02:09:28.423Z,60.21
2019-03-21T02:11:59.198Z,60.21
2019-03-21T02:14:37.308Z,100.00
2019-03-21T02:17:09.428Z,59.94
2019-03-21T02:19:40.237Z,59.94
2019-03-21T02:22:11.327Z,59.94
2019-03-21T02:24:42.169Z,59.94
2019-03-21T02:27:13.534Z,59.94
2019-03-21T02:29:44.502Z,59.94
2019-03-21T02:32:15.281Z,59.94
2019-03-21T02:34:46.091Z,60.68
2019-03-21T02:37:16.971Z,60.68
2019-03-21T02:39:58.925Z,60.68
2019-03-21T02:42:51.369Z,60.68
2019-03-21T02:45:22.127Z,60.68
2019-03-21T02:47:55.179Z,60.93
2019-03-21T02:50:32.487Z,60.93
2019-03-21T02:54:40.754Z,100.00
2019-03-21T02:57:23.858Z,100.00
2019-03-21T03:00:11.467Z,100.00
2019-03-21T03:02:42.323Z,100.00
2019-03-21T03:05:19.741Z,63.53
2019-03-21T03:07:51.121Z,60.96
2019-03-21T03:10:36.697Z,100.00
2019-03-21T03:13:07.520Z,60.96
2019-03-21T03:15:41.500Z,60.96
2019-03-21T03:18:15.645Z,60.96
2019-03-21T03:20:46.589Z,60.96
2019-03-21T03:23:17.374Z,60.96
2019-03-21T03:25:50.866Z,60.96
2019-03-21T03:28:31.723Z,60.96
2019-03-21T03:31:02.493Z,61.41
2019-03-21T03:33:36.862Z,61.33
2019-03-21T03:36:08.580Z,61.33
2019-03-21T03:38:39.837Z,100.00
2019-03-21T03:41:18.001Z,61.33
2019-03-21T03:43:52.949Z,61.33
2019-03-21T03:46:33.531Z,61.33
2019-03-21T03:49:04.707Z,61.33
2019-03-21T03:52:02.167Z,61.33
2019-03-21T03:54:41.126Z,61.33
2019-03-21T03:57:20.877Z,100.00
2019-03-21T04:00:19.108Z,61.33
2019-03-21T04:03:26.785Z,61.33
2019-03-21T04:07:57.829Z,61.33
2019-03-21T04:10:39.236Z,100.00
2019-03-21T04:13:12.097Z,61.33
2019-03-21T04:16:15.654Z,61.33
2019-03-21T04:18:46.528Z,61.33
2019-03-21T04:21:20.233Z,61.54
2019-03-21T04:24:52.137Z,100.00
2019-03-21T04:27:25.273Z,100.00
2019-03-21T04:29:56.104Z,100.00
2019-03-21T04:32:27.261Z,61.54
2019-03-21T04:34:58.026Z,61.54
2019-03-21T04:37:28.783Z,62.62
2019-03-21T04:39:59.680Z,62.32
2019-03-21T04:42:32.493Z,100.00
2019-03-21T04:45:10.209Z,100.00
2019-03-21T04:47:41.146Z,100.00
2019-03-21T04:50:39.929Z,62.32
2019-03-21T04:53:14.059Z,62.32
2019-03-21T04:56:14.997Z,62.32
2019-03-21T04:58:49.534Z,62.32
2019-03-21T05:01:20.674Z,62.32
2019-03-21T05:03:58.341Z,62.32
2019-03-21T05:06:29.111Z,62.32
2019-03-21T05:09:10.403Z,62.18
2019-03-21T05:14:23.673Z,62.18
2019-03-21T05:16:54.685Z,62.18
2019-03-21T05:19:25.684Z,62.18
2019-03-21T05:23:18.920Z,100.00
2019-03-21T05:26:29.774Z,62.18
2019-03-21T05:29:02.619Z,62.18
2019-03-21T05:32:04.138Z,62.18
2019-03-21T05:34:34.934Z,62.18
2019-03-21T05:37:12.384Z,100.00
2019-03-21T05:39:46.459Z,62.18
2019-03-21T05:43:15.968Z,62.18
2019-03-21T05:45:55.308Z,100.00
2019-03-21T05:48:30.698Z,0.00
2019-03-21T05:51:04.625Z,62.18
2019-03-21T05:53:39.338Z,100.00
2019-03-21T05:56:12.874Z,62.18
2019-03-21T05:58:55.096Z,62.18
2019-03-21T06:01:26.250Z,100.00
2019-03-21T06:04:01.508Z,62.18
2019-03-21T06:06:41.193Z,100.00
2019-03-21T06:09:20.101Z,100.00
2019-03-21T06:12:12.189Z,62.18
2019-03-21T06:15:00.380Z,49.28
2019-03-21T06:17:36.181Z,62.18
2019-03-21T06:21:57.397Z,62.18
2019-03-21T06:25:18.620Z,100.00
2019-03-21T06:28:33.285Z,62.18
2019-03-21T06:31:36.998Z,62.18
2019-03-21T06:34:19.662Z,62.18
2019-03-21T06:38:11.849Z,62.18
2019-03-21T06:46:10.098Z,62.18
2019-03-21T06:48:45.884Z,100.00
2019-03-21T06:51:25.594Z,62.18
2019-03-21T06:57:33.193Z,62.18
2019-03-21T07:00:06.366Z,62.18
2019-03-21T07:02:37.174Z,62.24
2019-03-21T07:05:08.148Z,62.43
2019-03-21T07:07:38.918Z,62.47
2019-03-21T07:10:09.983Z,61.88
2019-03-21T07:12:40.742Z,61.46
2019-03-21T07:15:11.711Z,61.19
2019-03-21T07:17:42.478Z,60.61
2019-03-21T07:20:13.342Z,60.36
2019-03-21T07:22:44.107Z,60.44
2019-03-21T07:25:14.880Z,60.09
2019-03-21T07:27:45.643Z,60.56
2019-03-21T07:30:37.256Z,60.11
2019-03-21T07:34:39.958Z,60.11
2019-03-21T07:37:10.719Z,60.11
2019-03-21T07:39:41.496Z,58.94
2019-03-21T07:42:12.251Z,59.10
2019-03-21T07:44:43.014Z,59.09
2019-03-21T07:47:14.385Z,100.00
2019-03-21T07:49:45.331Z,58.90
2019-03-21T07:52:16.147Z,58.90
2019-03-21T07:54:48.526Z,58.90
2019-03-21T07:57:20.638Z,58.90
2019-03-21T07:59:52.001Z,58.90
2019-03-21T08:02:25.886Z,58.90
2019-03-21T08:04:57.430Z,58.90
2019-03-21T08:07:28.726Z,58.90
2019-03-21T08:09:59.508Z,58.90
2019-03-21T08:12:31.226Z,100.00
2019-03-21T08:15:15.917Z,58.90
2019-03-21T08:17:46.677Z,58.90
2019-03-21T08:20:17.448Z,56.95
2019-03-21T08:22:48.226Z,57.42
2019-03-21T08:25:18.996Z,56.98
2019-03-21T08:27:51.726Z,56.65
2019-03-21T08:30:26.135Z,56.81
2019-03-21T08:32:56.906Z,56.22
2019-03-21T08:35:27.681Z,55.83
2019-03-21T08:37:58.453Z,55.54
2019-03-21T08:40:29.218Z,55.51
2019-03-21T08:42:59.981Z,55.52
2019-03-21T08:45:30.749Z,55.05
2019-03-21T08:48:01.506Z,54.38
2019-03-21T08:50:32.560Z,54.13
2019-03-21T08:53:03.328Z,54.18
2019-03-21T08:55:34.104Z,54.57
2019-03-21T08:58:04.863Z,54.13
2019-03-21T09:00:35.636Z,53.25
2019-03-21T09:03:06.393Z,53.18
2019-03-21T09:05:37.163Z,52.46
2019-03-21T09:08:07.919Z,52.08
2019-03-21T09:10:38.766Z,52.76
2019-03-21T09:13:09.517Z,52.57
2019-03-21T09:15:40.308Z,52.54
2019-03-21T09:18:11.080Z,51.64
2019-03-21T09:20:41.870Z,51.11
2019-03-21T09:23:12.632Z,49.61
2019-03-21T09:25:43.397Z,49.03
2019-03-21T09:28:14.443Z,48.72
2019-03-21T09:30:45.346Z,47.95
2019-03-21T09:33:16.163Z,47.59
2019-03-21T09:35:46.934Z,47.85
2019-03-21T09:38:17.693Z,47.70
2019-03-21T09:40:48.471Z,47.36
2019-03-21T09:43:19.374Z,47.19
2019-03-21T09:45:50.140Z,46.89
2019-03-21T09:48:20.893Z,46.35
2019-03-21T09:50:51.658Z,45.73
2019-03-21T09:53:22.413Z,45.90
2019-03-21T09:55:53.879Z,44.10
2019-03-21T09:58:24.700Z,44.92
2019-03-21T10:00:55.473Z,45.07
2019-03-21T10:03:26.265Z,44.43
2019-03-21T10:05:57.137Z,44.28
2019-03-21T10:08:27.932Z,42.54
2019-03-21T10:10:58.705Z,43.29
2019-03-21T10:13:29.525Z,43.31
2019-03-21T10:16:00.358Z,42.79
2019-03-21T10:18:31.133Z,40.51
2019-03-21T10:21:01.892Z,41.30
2019-03-21T10:23:32.649Z,40.06
2019-03-21T10:26:03.526Z,40.52
2019-03-21T10:28:34.325Z,39.68
2019-03-21T10:31:05.298Z,40.07
2019-03-21T10:33:36.057Z,39.71
2019-03-21T10:36:06.845Z,38.08
2019-03-21T10:38:37.770Z,38.69
2019-03-21T10:41:08.642Z,35.73
2019-03-21T10:43:39.402Z,37.86
2019-03-21T10:46:10.176Z,38.19
2019-03-21T10:48:40.949Z,37.64
2019-03-21T10:51:11.753Z,38.17
2019-03-21T10:53:42.516Z,36.82
2019-03-21T10:56:13.285Z,35.62
2019-03-21T10:58:44.049Z,36.66
2019-03-21T11:01:14.826Z,35.61
2019-03-21T11:03:45.577Z,34.90
2019-03-21T11:06:16.345Z,32.03
2019-03-21T11:08:47.200Z,33.85
2019-03-21T11:11:17.966Z,34.99
2019-03-21T11:13:48.721Z,35.31
2019-03-21T11:16:19.524Z,33.33
2019-03-21T11:18:50.277Z,35.91
2019-03-21T11:21:21.042Z,35.41
2019-03-21T11:23:51.807Z,34.56
2019-03-21T11:26:22.573Z,34.07
2019-03-21T11:28:53.334Z,35.04
2019-03-21T11:31:24.130Z,35.66
2019-03-21T11:33:54.885Z,35.16
2019-03-21T11:36:37.291Z,34.96
2019-03-21T11:38:58.546Z,35.54
2019-03-21T11:41:29.340Z,34.97
2019-03-21T11:44:00.103Z,36.05
2019-03-21T11:46:30.864Z,35.87
2019-03-21T11:49:01.636Z,34.91
2019-03-21T11:51:32.393Z,34.49
2019-03-21T11:54:03.499Z,33.89
2019-03-21T11:56:34.663Z,35.70
2019-03-21T11:59:05.501Z,35.94
2019-03-21T12:01:36.297Z,37.12
2019-03-21T12:04:07.158Z,34.54
2019-03-21T12:06:37.909Z,35.58
2019-03-21T12:09:08.674Z,36.40
2019-03-21T12:11:39.437Z,34.72
2019-03-21T12:14:10.222Z,35.25
2019-03-21T12:16:40.982Z,35.25
2019-03-21T12:19:14.836Z,34.75
2019-03-21T12:21:45.598Z,35.96
2019-03-21T12:24:16.373Z,35.35
2019-03-21T12:26:47.221Z,35.27
2019-03-21T12:29:17.994Z,32.49
2019-03-21T12:31:48.761Z,32.24
2019-03-21T12:34:19.528Z,32.81
2019-03-21T12:36:51.402Z,33.83
2019-03-21T12:39:22.406Z,32.44
2019-03-21T12:41:53.167Z,33.59
2019-03-21T12:44:24.010Z,33.62
2019-03-21T12:46:54.768Z,34.00
2019-03-21T12:49:25.592Z,33.59
2019-03-21T12:51:57.435Z,34.30
2019-03-21T12:54:28.277Z,32.96
2019-03-21T12:56:59.102Z,32.97
2019-03-21T12:59:29.875Z,32.58
2019-03-21T13:02:00.672Z,32.41
2019-03-21T13:04:31.554Z,31.53
2019-03-21T13:07:02.317Z,32.63
2019-03-21T13:09:33.189Z,32.36
2019-03-21T13:12:03.951Z,33.82
2019-03-21T13:14:34.729Z,33.51
2019-03-21T13:17:05.489Z,33.51
2019-03-21T13:19:36.257Z,32.88
2019-03-21T13:22:07.015Z,33.73
2019-03-21T13:24:37.778Z,30.71
2019-03-21T13:27:08.557Z,31.67
2019-03-21T13:29:39.424Z,31.40
2019-03-21T13:32:10.170Z,32.67
2019-03-21T13:34:40.933Z,32.17
2019-03-21T13:37:11.699Z,31.38
2019-03-21T13:39:42.526Z,31.90
2019-03-21T13:42:13.243Z,31.73
2019-03-21T13:44:44.005Z,30.03
2019-03-21T13:47:14.810Z,30.15
2019-03-21T13:49:45.666Z,30.39
2019-03-21T13:52:16.483Z,31.64
2019-03-21T13:54:47.250Z,31.54
2019-03-21T13:57:18.063Z,31.63
2019-03-21T13:59:48.839Z,31.27
2019-03-21T14:02:19.593Z,31.85
2019-03-21T14:04:50.360Z,32.07
2019-03-21T14:07:21.118Z,30.71
2019-03-21T14:09:51.881Z,30.99
2019-03-21T14:12:22.773Z,31.14
2019-03-21T14:14:53.631Z,30.86
2019-03-21T14:17:24.639Z,32.20
2019-03-21T14:19:55.486Z,31.27
2019-03-21T14:22:26.294Z,32.30
2019-03-21T14:24:57.130Z,31.76
2019-03-21T14:27:27.946Z,32.70
2019-03-21T14:30:01.853Z,32.95
2019-03-21T14:32:31.526Z,32.61
2019-03-21T14:35:04.654Z,31.88
2019-03-21T14:37:35.513Z,33.16
2019-03-21T14:40:09.429Z,33.16
2019-03-21T14:42:40.741Z,32.87
2019-03-21T14:45:13.903Z,33.03
2019-03-21T14:47:44.814Z,32.23
2019-03-21T14:50:15.837Z,33.15
2019-03-21T14:52:46.663Z,31.57
2019-03-21T14:55:17.482Z,31.57
2019-03-21T14:57:48.318Z,31.66
2019-03-21T15:00:19.168Z,32.39
2019-03-21T15:02:49.979Z,31.62
2019-03-21T15:05:20.813Z,31.60
2019-03-21T15:07:52.537Z,31.46
2019-03-21T15:10:23.430Z,31.72
2019-03-21T15:12:54.246Z,30.48
2019-03-21T15:15:25.187Z,31.84
2019-03-21T15:17:58.539Z,32.42
2019-03-21T15:20:28.814Z,32.85
2019-03-21T15:22:59.631Z,31.65
2019-03-21T15:25:30.544Z,31.23
2019-03-21T15:28:01.618Z,31.06
2019-03-21T15:30:32.499Z,31.42
2019-03-21T15:33:03.434Z,32.03
2019-03-21T15:35:34.239Z,32.94
2019-03-21T15:38:05.052Z,33.40
2019-03-21T15:40:35.903Z,32.15
2019-03-21T15:43:06.716Z,31.73
2019-03-21T15:45:37.545Z,32.00
2019-03-21T15:48:08.371Z,31.87
2019-03-21T15:50:39.182Z,32.04
2019-03-21T15:53:09.989Z,32.78
2019-03-21T15:55:40.825Z,32.89
2019-03-21T15:58:11.748Z,33.41
2019-03-21T16:00:42.974Z,32.20
2019-03-21T16:03:13.805Z,33.36
2019-03-21T16:05:44.641Z,33.36
2019-03-21T16:08:15.473Z,33.16
2019-03-21T16:10:46.293Z,32.83
2019-03-21T16:13:17.107Z,33.04
2019-03-21T16:15:47.958Z,33.09
2019-03-21T16:18:18.792Z,33.18
2019-03-21T16:20:49.567Z,32.87
2019-03-21T16:23:20.389Z,32.71
2019-03-21T16:25:51.240Z,32.91
2019-03-21T16:28:22.063Z,33.00
2019-03-21T16:30:52.926Z,32.97
2019-03-21T16:33:23.739Z,32.93
2019-03-21T16:35:54.505Z,32.93
2019-03-21T16:38:25.312Z,32.80
2019-03-21T16:40:56.153Z,32.65
2019-03-21T16:43:26.912Z,32.37
2019-03-21T16:45:57.727Z,32.83
2019-03-21T16:48:28.558Z,32.51
2019-03-21T16:50:59.400Z,32.95
2019-03-21T16:53:30.228Z,32.21
2019-03-21T16:56:01.091Z,33.02
2019-03-21T16:58:31.915Z,33.02
2019-03-21T17:01:02.759Z,32.42
2019-03-21T17:03:33.669Z,32.73
2019-03-21T17:06:04.497Z,33.11
2019-03-21T17:08:35.321Z,33.29
2019-03-21T17:11:06.240Z,32.95
2019-03-21T17:13:37.132Z,32.92
2019-03-21T17:16:07.982Z,32.87
2019-03-21T17:18:38.811Z,32.96
2019-03-21T17:21:09.923Z,32.86
2019-03-21T17:23:40.795Z,32.89
2019-03-21T17:26:11.642Z,33.58
2019-03-21T17:28:42.457Z,34.00
2019-03-21T17:31:13.300Z,33.49
2019-03-21T17:33:44.129Z,34.23
2019-03-21T17:36:14.937Z,34.09
2019-03-21T17:38:45.770Z,33.95
2019-03-21T17:41:16.587Z,33.71
2019-03-21T17:43:47.707Z,34.78
2019-03-21T17:46:18.610Z,35.88
2019-03-21T17:48:49.441Z,35.11
2019-03-21T17:51:20.241Z,34.91
2019-03-21T17:53:51.167Z,35.08
2019-03-21T17:56:21.988Z,34.84
2019-03-21T17:58:52.803Z,35.29
2019-03-21T18:01:23.628Z,35.90
2019-03-21T18:03:54.476Z,36.59
2019-03-21T18:06:25.326Z,37.62
2019-03-21T18:08:56.175Z,38.22
2019-03-21T18:11:26.985Z,37.76
2019-03-21T18:13:57.807Z,36.64
2019-03-21T18:16:28.635Z,37.56
2019-03-21T18:18:59.478Z,38.41
2019-03-21T18:21:30.296Z,37.99
2019-03-21T18:24:01.101Z,39.10
2019-03-21T18:26:31.915Z,38.25
2019-03-21T18:29:02.819Z,38.03
2019-03-21T18:31:33.651Z,38.61
2019-03-21T18:34:04.484Z,39.12
2019-03-21T18:36:35.313Z,39.95
2019-03-21T18:39:06.243Z,39.23
2019-03-21T18:41:37.051Z,38.27
2019-03-21T18:44:07.872Z,37.27
2019-03-21T18:46:38.656Z,36.95
2019-03-21T18:49:09.497Z,37.59
2019-03-21T18:51:40.311Z,37.59
2019-03-21T18:54:11.143Z,37.56
2019-03-21T18:56:41.970Z,38.98
2019-03-21T18:59:12.799Z,39.41
2019-03-21T19:01:43.619Z,40.02
2019-03-21T19:04:14.454Z,39.92
2019-03-21T19:06:45.293Z,40.24
2019-03-21T19:09:16.102Z,39.63
2019-03-21T19:11:46.913Z,40.73
2019-03-21T19:14:17.735Z,40.56
2019-03-21T19:16:48.547Z,40.62
2019-03-21T19:19:19.383Z,41.16
2019-03-21T19:21:50.479Z,41.55
2019-03-21T19:24:21.336Z,41.98
2019-03-21T19:26:52.173Z,41.39
2019-03-21T19:29:23.028Z,42.10
2019-03-21T19:31:53.839Z,42.51
2019-03-21T19:34:24.677Z,41.84
2019-03-21T19:36:55.503Z,42.55
2019-03-21T19:39:26.341Z,42.50
2019-03-21T19:41:57.159Z,42.13
2019-03-21T19:44:27.987Z,42.75
2019-03-21T19:47:01.375Z,43.67
2019-03-21T19:49:31.556Z,44.29
2019-03-21T19:52:02.462Z,43.61
2019-03-21T19:54:33.298Z,44.00
2019-03-21T19:57:04.109Z,43.44
2019-03-21T19:59:34.967Z,43.21
2019-03-21T20:02:05.794Z,43.30
2019-03-21T20:04:36.628Z,44.09
2019-03-21T20:07:07.446Z,44.10
2019-03-21T20:09:38.270Z,43.79
2019-03-21T20:12:09.120Z,44.39
2019-03-21T20:14:39.937Z,44.23
2019-03-21T20:17:10.758Z,44.70
2019-03-21T20:19:41.544Z,45.03
2019-03-21T20:22:12.337Z,45.15
2019-03-21T20:24:43.111Z,45.62
2019-03-21T20:27:13.887Z,45.53
2019-03-21T20:29:44.706Z,46.08
2019-03-21T20:32:20.578Z,46.31
2019-03-21T20:34:48.209Z,46.31
2019-03-21T20:37:18.975Z,46.26
2019-03-21T20:39:49.763Z,46.90
2019-03-21T20:42:20.523Z,47.58
2019-03-21T20:44:51.304Z,47.60
2019-03-21T20:47:22.071Z,47.13
2019-03-21T20:49:52.848Z,47.16
2019-03-21T20:52:23.607Z,47.95
2019-03-21T20:54:54.370Z,48.61
2019-03-21T20:57:25.134Z,48.86
2019-03-21T20:59:55.898Z,48.95
2019-03-21T21:02:26.658Z,48.85
2019-03-21T21:04:57.425Z,48.63
2019-03-21T21:07:28.181Z,48.85
2019-03-21T21:09:59.012Z,49.27
2019-03-21T21:12:29.769Z,49.44
2019-03-21T21:15:00.748Z,49.67
2019-03-21T21:17:31.494Z,50.20
2019-03-21T21:20:05.010Z,50.54
2019-03-21T21:22:35.840Z,50.63
2019-03-21T21:25:07.746Z,50.73
2019-03-21T21:27:48.625Z,50.69
2019-03-21T21:30:21.021Z,50.84
2019-03-21T21:32:51.909Z,50.76
2019-03-21T21:35:22.789Z,50.33
2019-03-21T21:37:53.751Z,50.31
2019-03-21T21:40:24.647Z,50.71
2019-03-21T21:42:55.520Z,50.91
2019-03-21T21:45:26.288Z,51.26
2019-03-21T21:47:57.038Z,51.96
2019-03-21T21:50:27.805Z,51.96
2019-03-21T21:52:58.561Z,52.22
2019-03-21T21:55:29.330Z,52.56
2019-03-21T21:58:00.091Z,52.55
2019-03-21T22:00:30.864Z,52.63
2019-03-21T22:03:01.629Z,52.71
2019-03-21T22:05:32.396Z,52.59
2019-03-21T22:08:03.206Z,52.76
2019-03-21T22:10:33.971Z,52.74
2019-03-21T22:13:04.726Z,52.83
2019-03-21T22:15:35.493Z,53.18
2019-03-21T22:18:06.251Z,53.50
2019-03-21T22:20:37.018Z,53.66
2019-03-21T22:23:07.779Z,53.68
2019-03-21T22:25:38.546Z,53.82
2019-03-21T22:28:10.276Z,53.43
2019-03-21T22:30:41.191Z,53.48
2019-03-21T22:33:11.954Z,53.95
2019-03-21T22:35:42.721Z,53.96
2019-03-21T22:38:13.481Z,54.32
2019-03-21T22:40:44.245Z,54.47
2019-03-21T22:43:15.003Z,54.15
2019-03-21T22:45:45.778Z,54.56
2019-03-21T22:48:16.584Z,54.94
2019-03-21T22:50:47.348Z,54.80
2019-03-21T22:53:18.102Z,55.08
2019-03-21T22:55:48.867Z,54.90
2019-03-21T22:58:31.212Z,55.12
2019-03-21T23:00:53.110Z,55.02
2019-03-21T23:03:23.866Z,55.19
2019-03-21T23:05:54.637Z,55.21
2019-03-21T23:08:25.397Z,55.05
2019-03-21T23:10:56.162Z,54.54
2019-03-21T23:13:26.917Z,54.25
2019-03-21T23:15:57.699Z,54.51
2019-03-21T23:18:28.452Z,54.64
2019-03-21T23:20:59.227Z,53.52
2019-03-21T23:23:29.984Z,53.16
2019-03-21T23:26:00.754Z,53.65
2019-03-21T23:28:31.516Z,53.40
2019-03-21T23:31:02.296Z,54.22
2019-03-21T23:33:33.051Z,54.63
2019-03-21T23:36:03.824Z,54.46
2019-03-21T23:38:34.578Z,54.23
2019-03-21T23:41:05.353Z,54.27
2019-03-21T23:43:36.106Z,53.64
2019-03-21T23:46:06.874Z,53.96
2019-03-21T23:48:37.634Z,53.85
2019-03-21T23:51:08.395Z,54.05
2019-03-21T23:53:39.153Z,53.90
2019-03-21T23:56:10.204Z,54.38
2019-03-21T23:58:40.978Z,54.57
